createdAt,value
2023-04-15T00:00:46.743Z,43.5
2023-04-15T00:06:16.232Z,43.5
2023-04-15T00:11:46.680Z,43.5
2023-04-15T00:17:17.283Z,43.5
2023-04-15T00:22:47.768Z,43.5
2023-04-15T00:28:18.264Z,43.5
2023-04-15T00:33:48.939Z,43.5
2023-04-15T00:39:19.403Z,43.5
2023-04-15T00:44:49.883Z,43.5
2023-04-15T00:50:20.456Z,43.5
2023-04-15T00:55:50.934Z,43.5
2023-04-15T01:01:20.489Z,43.5
2023-04-15T01:06:50.901Z,43.5
2023-04-15T01:12:21.384Z,43.5
2023-04-15T01:17:52.016Z,43.5
2023-04-15T01:23:22.469Z,43.5
2023-04-15T01:28:52.940Z,43.5
2023-04-15T01:34:23.552Z,43.5
2023-04-15T01:39:54.014Z,43.5
2023-04-15T01:46:30.707Z,43.5
2023-04-15T01:52:00.194Z,43.5
2023-04-15T01:57:30.665Z,43.5
2023-04-15T02:03:01.251Z,43.5
2023-04-15T02:08:30.614Z,43.5
2023-04-15T02:14:01.358Z,43.5
2023-04-15T02:19:31.822Z,43.5
2023-04-15T02:25:02.331Z,43
2023-04-15T02:30:32.920Z,43
2023-04-15T02:36:03.394Z,43
2023-04-15T02:41:32.901Z,43
2023-04-15T02:47:03.413Z,43.5
2023-04-15T02:52:33.855Z,43.5
2023-04-15T02:58:04.412Z,43.5
2023-04-15T03:03:34.920Z,43.5
2023-04-15T03:09:05.361Z,43
2023-04-15T03:14:35.957Z,43.5
2023-04-15T03:20:06.475Z,43.5
2023-04-15T03:25:36.952Z,43.5
2023-04-15T03:31:06.487Z,43.5
2023-04-15T03:42:07.554Z,43.5
2023-04-15T03:47:38.039Z,43.5
2023-04-15T03:53:08.489Z,43.5
2023-04-15T03:58:39.078Z,44
2023-04-15T04:04:09.618Z,44
2023-04-15T04:09:40.240Z,44
2023-04-15T04:15:10.700Z,44
2023-04-15T04:20:41.170Z,44
2023-04-15T04:26:11.785Z,44
2023-04-15T04:31:42.312Z,44
2023-04-15T04:37:12.729Z,44
2023-04-15T04:42:43.320Z,44
2023-04-15T04:48:13.790Z,44
2023-04-15T04:53:44.264Z,44
2023-04-15T04:59:14.845Z,44
2023-04-15T05:04:45.455Z,44
2023-04-15T05:10:14.936Z,44
2023-04-15T05:15:45.459Z,44
2023-04-15T05:21:15.912Z,44
2023-04-15T05:26:46.507Z,43.5
2023-04-15T05:32:16.999Z,43.5
2023-04-15T05:37:47.496Z,43.5
2023-04-15T05:43:18.043Z,43
2023-04-15T05:48:48.644Z,43
2023-04-15T05:54:20.216Z,43
2023-04-15T05:59:49.721Z,43.5
2023-04-15T06:05:20.187Z,43
2023-04-15T06:10:50.771Z,43
2023-04-15T06:16:21.405Z,43.5
2023-04-15T06:21:51.938Z,43.5
2023-04-15T06:27:22.430Z,43.5
2023-04-15T06:32:52.917Z,43.5
2023-04-15T06:38:22.366Z,43.5
2023-04-15T06:44:58.964Z,43.5
2023-04-15T06:50:29.531Z,43.5
2023-04-15T06:56:00.024Z,43.5
2023-04-15T07:01:30.604Z,43.5
2023-04-15T07:06:59.972Z,43.5
2023-04-15T07:12:30.558Z,43.5
2023-04-15T07:18:01.112Z,43.5
2023-04-15T07:23:31.662Z,43.5
2023-04-15T07:29:02.335Z,43.5
2023-04-15T07:34:32.872Z,43.5
2023-04-15T07:40:03.195Z,43.5
2023-04-15T07:45:33.674Z,43.5
2023-04-15T07:51:04.288Z,43.5
2023-04-15T07:56:34.755Z,43.5
2023-04-15T08:02:05.262Z,43.5
2023-04-15T08:07:35.812Z,43.5
2023-04-15T08:13:06.323Z,43.5
2023-04-15T08:18:36.800Z,43.5
2023-04-15T08:24:06.256Z,43.5
2023-04-15T08:29:36.733Z,44
2023-04-15T08:35:07.238Z,44
2023-04-15T08:40:36.698Z,44
2023-04-15T08:46:07.183Z,44
2023-04-15T08:51:37.676Z,44
2023-04-15T08:57:07.271Z,44
2023-04-15T09:02:37.882Z,44.5
2023-04-15T09:08:08.229Z,44.5
2023-04-15T09:13:37.704Z,44.5
2023-04-15T09:19:08.183Z,44.5
2023-04-15T09:24:37.728Z,44.5
2023-04-15T09:30:08.164Z,44.5
2023-04-15T09:35:38.766Z,44.5
2023-04-15T09:41:09.225Z,44.5
2023-04-15T09:46:39.698Z,45
2023-04-15T09:52:10.282Z,45
2023-04-15T09:57:40.781Z,45
2023-04-15T10:03:10.404Z,45
2023-04-15T10:08:40.733Z,45
2023-04-15T10:14:11.227Z,45
2023-04-15T10:19:41.877Z,45
2023-04-15T10:25:12.437Z,45
2023-04-15T10:30:42.790Z,45
2023-04-15T10:36:12.262Z,45
2023-04-15T10:41:42.742Z,45
2023-04-15T10:47:13.317Z,45
2023-04-15T10:52:43.791Z,45
2023-04-15T10:58:14.269Z,45
2023-04-15T11:03:44.036Z,45
2023-04-15T11:09:14.232Z,45
2023-04-15T11:14:44.837Z,45
2023-04-15T11:20:15.305Z,45
2023-04-15T11:25:45.768Z,45
2023-04-15T11:31:16.518Z,45
2023-04-15T11:36:46.970Z,45
2023-04-15T11:42:17.450Z,45
2023-04-15T11:47:48.052Z,45
2023-04-15T11:53:21.906Z,44.5
2023-04-15T11:58:52.373Z,41.5
2023-04-15T12:04:25.427Z,39.5
2023-04-15T12:09:53.345Z,39
2023-04-15T12:15:24.073Z,38.5
2023-04-15T12:20:54.560Z,38.5
2023-04-15T12:26:25.038Z,38.5
2023-04-15T12:31:54.595Z,39
2023-04-15T12:37:25.326Z,38
2023-04-15T12:44:02.181Z,38.5
2023-04-15T12:49:32.513Z,38.5
2023-04-15T12:55:01.959Z,38.5
2023-04-15T13:00:32.490Z,40.5
2023-04-15T13:06:03.290Z,39.5
2023-04-15T13:11:33.779Z,39.5
2023-04-15T13:17:04.231Z,39
2023-04-15T13:22:34.819Z,39
2023-04-15T13:28:05.583Z,39
2023-04-15T13:33:36.160Z,39.5
2023-04-15T13:39:06.660Z,39.5
2023-04-15T13:44:37.283Z,39
2023-04-15T13:50:08.009Z,39.5
2023-04-15T13:55:38.576Z,39.5
2023-04-15T14:01:09.093Z,39
2023-04-15T14:12:10.165Z,38.5
2023-04-15T14:17:40.953Z,38.5
2023-04-15T14:23:11.365Z,38
2023-04-15T14:28:41.865Z,38.5
2023-04-15T14:34:12.461Z,39
2023-04-15T14:39:42.198Z,38.5
2023-04-15T14:45:12.804Z,38.5
2023-04-15T14:50:43.282Z,38.5
2023-04-15T14:56:13.771Z,38.5
2023-04-15T15:01:43.285Z,38.5
2023-04-15T15:07:12.868Z,39.5
2023-04-15T15:12:43.317Z,39
2023-04-15T15:18:13.841Z,39.5
2023-04-15T15:23:44.441Z,40
2023-04-15T15:29:15.015Z,41
2023-04-15T15:34:43.801Z,41.5
2023-04-15T15:40:14.414Z,41.5
2023-04-15T15:45:44.840Z,41.5
2023-04-15T15:51:15.496Z,42
2023-04-15T15:56:45.925Z,42
2023-04-15T16:02:14.808Z,41.5
2023-04-15T16:07:44.299Z,41.5
2023-04-15T16:13:14.792Z,41.5
2023-04-15T16:18:45.253Z,41.5
2023-04-15T16:24:15.842Z,41.5
2023-04-15T16:29:45.486Z,41.5
2023-04-15T16:35:16.217Z,41.5
2023-04-15T16:40:46.684Z,41.5
2023-04-15T16:46:17.164Z,41.5
2023-04-15T16:51:47.843Z,41.5
2023-04-15T16:57:18.575Z,41
2023-04-15T17:02:49.179Z,41
2023-04-15T17:08:19.536Z,41
2023-04-15T17:13:50.133Z,41
2023-04-15T17:19:19.621Z,41
2023-04-15T17:24:50.203Z,41
2023-04-15T17:30:20.791Z,41
2023-04-15T17:41:21.889Z,41
2023-04-15T17:46:51.763Z,41
2023-04-15T17:52:20.406Z,41
2023-04-15T17:57:50.884Z,41
2023-04-15T18:03:21.494Z,41
2023-04-15T18:08:51.973Z,41
2023-04-15T18:14:33.676Z,41
2023-04-15T18:19:52.208Z,41
2023-04-15T18:25:21.972Z,41
2023-04-15T18:30:50.614Z,41
2023-04-15T18:36:21.190Z,41
2023-04-15T18:41:51.666Z,41
2023-04-15T18:47:22.168Z,41
2023-04-15T18:52:51.617Z,40.5
2023-04-15T18:58:20.370Z,40.5
2023-04-15T19:03:50.023Z,40.5
2023-04-15T19:09:20.470Z,40.5
2023-04-15T19:14:51.105Z,40.5
2023-04-15T19:21:27.665Z,40.5
2023-04-15T19:26:57.281Z,40.5
2023-04-15T19:32:27.769Z,40.5
2023-04-15T19:37:58.209Z,40.5
2023-04-15T19:43:28.837Z,40.5
2023-04-15T19:48:59.564Z,40.5
2023-04-15T19:54:30.050Z,40.5
2023-04-15T20:00:00.518Z,40.5
2023-04-15T20:05:31.227Z,40.5
2023-04-15T20:11:01.715Z,40.5
2023-04-15T20:16:32.206Z,40.5
2023-04-15T20:22:02.764Z,40.5
2023-04-15T20:27:33.389Z,40.5
2023-04-15T20:33:03.862Z,40.5
2023-04-15T20:38:34.450Z,40.5
2023-04-15T20:44:04.920Z,40.5
2023-04-15T20:49:35.508Z,40.5
2023-04-15T20:55:06.081Z,40.5
2023-04-15T21:00:36.619Z,40.5
2023-04-15T21:06:07.053Z,40.5
2023-04-15T21:17:10.815Z,40.5
2023-04-15T21:23:44.675Z,40.5
2023-04-15T21:29:15.352Z,40.5
2023-04-15T21:34:45.761Z,40.5
2023-04-15T21:40:15.235Z,40.5
2023-04-15T21:46:21.213Z,40.5
2023-04-15T21:51:16.221Z,41
2023-04-15T21:56:46.859Z,41
2023-04-15T22:02:17.373Z,41
2023-04-15T22:07:47.774Z,41
2023-04-15T22:13:18.389Z,41
2023-04-15T22:18:48.839Z,41
2023-04-15T22:24:35.020Z,41
2023-04-15T22:29:49.914Z,41
2023-04-15T22:35:20.357Z,41
2023-04-15T22:40:50.846Z,41
2023-04-15T22:46:21.503Z,41
2023-04-15T22:51:51.934Z,41
2023-04-15T22:57:21.507Z,41
2023-04-15T23:02:52.152Z,41
2023-04-15T23:08:22.458Z,41
2023-04-15T23:13:51.987Z,41
2023-04-15T23:19:22.452Z,41
2023-04-15T23:24:53.049Z,41
2023-04-15T23:31:29.645Z,41
2023-04-15T23:37:00.097Z,41
2023-04-15T23:42:30.674Z,41
2023-04-15T23:48:01.179Z,41
2023-04-15T23:53:31.745Z,41
2023-04-15T23:59:02.335Z,41
